Time;durP1;ratioP1;P1;durP2;ratioP2;P2;SDS_P1;SDS_P2;PMS_P1;PMS_P2;Temp;Humidity;BMP_temperature;BMP_pressure;BME280_temperature;BME280_humidity;BME280_pressure;Samples;Min_cycle;Max_cycle;Signal;HPM_P1;HPM_P2
2023/10/26 00:01:09;;;;;;;10.90;3.60;;;;;;;;;;5072165;28;20024;-54
2023/10/26 00:03:35;;;;;;;8.07;3.08;;;16.00;99.90;;;;;;5070041;28;20043;-53
2023/10/26 00:06:01;;;;;;;6.85;2.80;;;15.80;99.90;;;;;;5061931;28;20037;-52
2023/10/26 00:08:26;;;;;;;6.05;2.60;;;15.60;99.90;;;;;;5069960;28;20056;-52
2023/10/26 00:10:53;;;;;;;7.45;2.65;;;;;;;;;;5072108;28;20040;-51
2023/10/26 00:13:19;;;;;;;4.97;3.00;;;14.90;99.90;;;;;;5071978;28;20111;-53
2023/10/26 00:15:44;;;;;;;4.47;2.63;;;15.00;99.90;;;;;;5071613;28;20071;-53
2023/10/26 00:18:11;;;;;;;5.28;2.53;;;14.90;99.90;;;;;;5071788;28;20020;-55
2023/10/26 00:20:37;;;;;;;6.18;2.90;;;15.00;99.90;;;;;;5072097;28;20120;-53
2023/10/26 00:23:05;;;;;;;6.25;2.95;;;15.10;99.90;;;;;;5072057;28;20051;-51
2023/10/26 00:25:30;;;;;;;8.65;2.95;;;15.20;99.90;;;;;;5071899;28;20043;-51
2023/10/26 00:27:58;;;;;;;6.72;3.10;;;15.30;99.90;;;;;;5072190;28;20459;-51
2023/10/26 00:30:24;;;;;;;8.30;3.08;;;15.40;99.90;;;;;;5071605;28;20479;-53
2023/10/26 00:32:50;;;;;;;7.13;3.05;;;15.40;99.90;;;;;;5071855;28;20060;-52
2023/10/26 00:35:16;;;;;;;6.03;2.63;;;15.40;99.90;;;;;;5071640;28;20021;-52
2023/10/26 00:37:42;;;;;;;5.97;2.70;;;15.50;99.90;;;;;;5069667;28;20040;-53
2023/10/26 00:40:08;;;;;;;6.80;2.88;;;15.50;99.90;;;;;;5076232;28;20052;-52
2023/10/26 00:42:34;;;;;;;8.27;2.75;;;15.50;99.90;;;;;;5082879;28;20059;-53
2023/10/26 00:45:00;;;;;;;6.63;2.60;;;15.50;99.90;;;;;;5092000;28;20066;-54
2023/10/26 00:47:27;;;;;;;7.72;2.97;;;15.70;99.90;;;;;;5091772;28;20032;-51
2023/10/26 00:49:53;;;;;;;8.85;3.20;;;15.70;99.90;;;;;;5091873;28;20051;-52
2023/10/26 00:52:20;;;;;;;6.65;3.55;;;15.50;99.90;;;;;;5092069;28;20058;-51
2023/10/26 00:54:46;;;;;;;5.78;3.25;;;15.60;99.90;;;;;;5091925;28;20031;-54
2023/10/26 00:57:16;;;;;;;7.28;2.50;;;15.70;99.90;;;;;;5055886;28;20036;-53
2023/10/26 00:59:44;;;;;;;5.35;2.45;;;15.60;99.90;;;;;;5106706;28;20057;-52
2023/10/26 01:02:11;;;;;;;10.45;3.67;;;15.70;99.90;;;;;;5091928;28;20114;-51
2023/10/26 01:04:37;;;;;;;7.55;3.17;;;15.80;99.90;;;;;;5106610;28;20036;-54
2023/10/26 01:07:02;;;;;;;6.85;3.08;;;15.60;99.90;;;;;;5089619;28;20398;-53
2023/10/26 01:09:28;;;;;;;5.28;3.17;;;15.60;99.90;;;;;;5055475;28;20503;-53
2023/10/26 01:11:54;;;;;;;8.48;3.50;;;15.60;99.90;;;;;;5089569;28;20434;-54
2023/10/26 01:14:20;;;;;;;8.63;2.95;;;15.70;99.90;;;;;;5106395;28;20082;-51
2023/10/26 01:16:46;;;;;;;8.02;3.20;;;15.70;99.90;;;;;;5091653;28;20521;-52
2023/10/26 01:19:11;;;;;;;7.40;3.45;;;15.60;99.90;;;;;;5091714;28;20032;-51
2023/10/26 01:21:53;;;;;;;6.03;3.17;;;15.60;99.90;;;;;;5091470;28;20073;-53
2023/10/26 01:24:19;;;;;;;5.60;2.92;;;15.60;99.90;;;;;;5106155;28;20036;-51
2023/10/26 01:26:45;;;;;;;7.43;3.20;;;15.60;99.90;;;;;;5091648;28;20033;-52
2023/10/26 01:29:12;;;;;;;5.47;3.20;;;15.70;99.90;;;;;;5094647;28;20039;-53
2023/10/26 01:31:38;;;;;;;8.75;3.45;;;15.70;99.90;;;;;;5095658;28;20099;-50
2023/10/26 01:34:04;;;;;;;5.47;3.13;;;15.80;99.90;;;;;;5095616;28;20028;-53
2023/10/26 01:36:30;;;;;;;5.72;2.90;;;15.90;99.90;;;;;;5095424;28;20097;-51
2023/10/26 01:38:56;;;;;;;7.10;3.50;;;15.90;99.90;;;;;;5093090;28;20476;-52
2023/10/26 01:41:22;;;;;;;9.27;4.03;;;15.90;99.90;;;;;;5094993;28;20491;-52
2023/10/26 01:43:47;;;;;;;8.07;3.25;;;15.90;99.90;;;;;;5095547;28;20427;-52
2023/10/26 01:46:13;;;;;;;6.32;3.63;;;15.90;99.90;;;;;;5109933;28;20036;-51
2023/10/26 01:48:40;;;;;;;9.63;3.55;;;15.90;99.90;;;;;;5095087;28;20494;-52
2023/10/26 01:51:05;;;;;;;9.48;3.80;;;15.90;99.90;;;;;;5095099;28;20077;-52
2023/10/26 01:53:31;;;;;;;6.72;3.40;;;15.70;99.90;;;;;;5095404;28;20076;-52
2023/10/26 01:55:57;;;;;;;8.65;3.00;;;15.70;99.90;;;;;;5073621;28;20032;-52
2023/10/26 01:58:22;;;;;;;8.45;3.40;;;15.70;99.90;;;;;;5074662;28;20020;-51
2023/10/26 02:00:48;;;;;;;6.63;3.33;;;15.80;99.90;;;;;;5022365;28;20365;-51
2023/10/26 02:03:15;;;;;;;7.80;3.22;;;15.70;99.90;;;;;;5075002;28;20502;-52
2023/10/26 02:05:41;;;;;;;10.88;3.40;;;15.90;99.90;;;;;;5074696;28;20173;-53
2023/10/26 02:08:07;;;;;;;8.48;4.35;;;15.90;99.90;;;;;;5089169;28;20123;-51
2023/10/26 02:10:33;;;;;;;7.25;3.30;;;15.90;99.90;;;;;;5074247;28;20032;-53
2023/10/26 02:12:59;;;;;;;7.22;2.90;;;15.90;99.90;;;;;;5072231;28;20036;-51
2023/10/26 02:15:25;;;;;;;7.07;3.00;;;16.00;99.90;;;;;;5074625;28;20107;-52
2023/10/26 02:17:51;;;;;;;5.32;2.90;;;16.00;99.90;;;;;;5074544;28;20476;-54
2023/10/26 02:20:17;;;;;;;8.45;2.97;;;16.10;99.90;;;;;;5074329;28;20029;-52
2023/10/26 02:22:43;;;;;;;5.80;2.65;;;16.10;99.90;;;;;;5074184;28;20020;-51
2023/10/26 02:25:09;;;;;;;6.75;2.53;;;16.20;99.90;;;;;;5074341;28;20066;-53
2023/10/26 02:27:35;;;;;;;5.85;2.20;;;16.30;99.90;;;;;;5074307;28;20513;-54
2023/10/26 02:30:02;;;;;;;6.07;1.98;;;16.40;99.90;;;;;;5074229;28;20064;-53
2023/10/26 02:32:28;;;;;;;5.13;2.10;;;16.60;99.90;;;;;;5074332;28;20036;-51
2023/10/26 02:34:53;;;;;;;6.03;2.25;;;16.70;99.90;;;;;;5074045;28;20029;-51
2023/10/26 02:37:19;;;;;;;8.07;2.70;;;16.80;99.90;;;;;;5074368;28;20029;-52
2023/10/26 02:39:46;;;;;;;8.02;1.85;;;16.80;99.90;;;;;;5073194;28;20041;-54
2023/10/26 02:42:12;;;;;;;5.70;1.90;;;16.70;99.90;;;;;;5073363;28;20111;-53
2023/10/26 02:44:37;;;;;;;7.20;2.35;;;16.60;99.90;;;;;;5088441;28;20111;-52
2023/10/26 02:47:03;;;;;;;6.03;1.90;;;16.60;99.90;;;;;;5073779;28;20063;-51
2023/10/26 02:49:33;;;;;;;5.88;1.80;;;16.50;99.90;;;;;;5071412;28;20051;-54
2023/10/26 02:51:59;;;;;;;4.28;2.08;;;16.40;99.90;;;;;;5071620;28;20040;-54
2023/10/26 02:54:28;;;;;;;4.07;1.80;;;16.40;99.90;;;;;;5073503;28;20395;-53
2023/10/26 02:56:54;;;;;;;4.95;2.00;;;16.40;99.90;;;;;;5073236;28;20476;-54
2023/10/26 02:59:21;;;;;;;8.40;1.92;;;16.30;99.90;;;;;;5073505;28;20111;-51
2023/10/26 03:01:46;;;;;;;3.83;1.80;;;16.30;99.90;;;;;;5073153;28;20020;-52
2023/10/26 03:04:12;;;;;;;3.67;1.70;;;16.30;99.90;;;;;;5073088;28;20031;-52
2023/10/26 03:06:39;;;;;;;4.07;1.90;;;16.30;99.90;;;;;;5073248;28;20035;-52
2023/10/26 03:09:07;;;;;;;7.18;2.33;;;16.30;99.90;;;;;;5087978;28;20040;-51
2023/10/26 03:11:34;;;;;;;5.60;1.80;;;16.30;99.90;;;;;;5073309;28;20036;-52
2023/10/26 03:14:00;;;;;;;7.13;2.20;;;16.20;99.90;;;;;;5073181;28;20023;-53
2023/10/26 03:16:26;;;;;;;5.07;2.10;;;16.20;99.90;;;;;;5072998;28;20028;-52
2023/10/26 03:18:52;;;;;;;5.28;2.15;;;16.20;99.90;;;;;;5072961;28;20112;-51
2023/10/26 03:21:20;;;;;;;4.63;2.00;;;16.10;99.90;;;;;;5073482;28;20033;-52
2023/10/26 03:23:52;;;;;;;5.85;2.40;;;16.00;99.90;;;;;;5072950;28;20040;-53
2023/10/26 03:26:18;;;;;;;;;;;16.10;99.90;;;;;;5073052;28;20032;-53
2023/10/26 03:28:44;;;;;;;5.40;1.90;;;16.00;99.90;;;;;;5073009;28;19916;-52
2023/10/26 03:31:11;;;;;;;6.10;2.22;;;16.00;99.90;;;;;;5072941;28;20037;-53
2023/10/26 03:33:37;;;;;;;6.15;2.17;;;16.00;99.90;;;;;;5072735;28;20111;-55
2023/10/26 03:36:03;;;;;;;5.90;1.95;;;15.90;99.90;;;;;;5073144;28;20448;-53
2023/10/26 03:38:29;;;;;;;3.17;1.58;;;15.90;99.90;;;;;;5070500;28;20032;-53
2023/10/26 03:40:55;;;;;;;6.20;1.88;;;15.80;99.90;;;;;;5072713;28;20049;-53
2023/10/26 03:43:21;;;;;;;6.50;2.00;;;15.90;99.90;;;;;;5087393;28;20043;-52
2023/10/26 03:45:46;;;;;;;5.75;2.08;;;15.90;99.90;;;;;;5071826;28;20399;-54
2023/10/26 03:48:12;;;;;;;7.40;2.03;;;16.00;99.90;;;;;;5069818;28;20040;-53
2023/10/26 03:50:38;;;;;;;7.60;2.08;;;16.00;99.90;;;;;;5071911;28;20430;-53
2023/10/26 03:53:04;;;;;;;5.75;2.25;;;16.00;99.90;;;;;;5072345;28;20119;-53
2023/10/26 03:55:29;;;;;;;5.78;2.00;;;16.00;99.90;;;;;;5070227;28;20118;-53
2023/10/26 03:57:55;;;;;;;4.82;2.60;;;15.90;99.90;;;;;;5087185;28;20047;-52
2023/10/26 04:00:21;;;;;;;4.25;1.90;;;15.90;99.90;;;;;;5072620;28;20512;-53
2023/10/26 04:02:47;;;;;;;6.32;2.47;;;16.00;99.90;;;;;;5072514;28;20561;-54
2023/10/26 04:05:15;;;;;;;4.95;1.90;;;16.10;99.90;;;;;;5072231;28;20142;-54
2023/10/26 04:07:42;;;;;;;6.75;1.90;;;16.20;99.90;;;;;;5072521;28;20028;-54
2023/10/26 04:10:09;;;;;;;5.60;2.28;;;16.20;99.90;;;;;;5070047;28;20052;-52
2023/10/26 04:12:35;;;;;;;8.85;2.33;;;16.20;99.90;;;;;;5069906;28;20094;-51
2023/10/26 04:15:02;;;;;;;8.02;2.30;;;16.20;99.90;;;;;;5086910;28;20438;-52
2023/10/26 04:17:28;;;;;;;9.40;2.20;;;16.10;99.90;;;;;;5072226;28;20667;-54
2023/10/26 04:19:54;;;;;;;5.45;2.17;;;16.20;99.90;;;;;;5072042;28;20457;-53
2023/10/26 04:22:20;;;;;;;4.60;1.60;;;16.20;99.90;;;;;;5072113;28;20052;-54
2023/10/26 04:24:45;;;;;;;7.97;2.30;;;16.20;99.90;;;;;;5071917;28;20431;-54
2023/10/26 04:27:11;;;;;;;3.85;1.70;;;16.20;99.90;;;;;;5069824;28;20040;-54
2023/10/26 04:29:37;;;;;;;6.00;1.98;;;16.10;99.90;;;;;;5070898;28;20032;-54
2023/10/26 04:32:03;;;;;;;3.22;1.50;;;16.10;99.90;;;;;;5044196;28;20032;-54
2023/10/26 04:34:29;;;;;;;5.25;1.50;;;16.10;99.90;;;;;;5043230;28;20041;-54
2023/10/26 04:36:54;;;;;;;5.60;1.48;;;16.30;99.90;;;;;;5060843;28;20021;-52
2023/10/26 04:39:22;;;;;;;5.60;1.70;;;16.40;99.90;;;;;;5065706;28;20028;-53
2023/10/26 04:41:48;;;;;;;7.45;1.20;;;16.50;99.90;;;;;;5071662;28;20388;-52
2023/10/26 04:44:13;;;;;;;6.28;1.80;;;16.60;99.90;;;;;;5071779;28;20025;-52
2023/10/26 04:46:39;;;;;;;7.25;1.67;;;16.70;99.90;;;;;;5086526;28;20037;-52
2023/10/26 04:49:05;;;;;;;6.82;2.53;;;16.90;99.90;;;;;;5066017;28;20025;-53
2023/10/26 04:51:32;;;;;;;5.03;1.58;;;17.00;99.90;;;;;;5060101;28;20029;-51
2023/10/26 04:53:57;;;;;;;6.32;1.67;;;17.10;99.90;;;;;;5061366;28;20032;-51
2023/10/26 04:56:23;;;;;;;2.20;1.05;;;17.10;99.90;;;;;;5056827;28;20029;-53
2023/10/26 04:58:49;;;;;;;8.40;1.50;;;17.10;99.90;;;;;;5052007;28;20116;-52
2023/10/26 05:01:15;;;;;;;3.30;1.20;;;17.10;99.90;;;;;;5051846;28;20021;-51
2023/10/26 05:03:41;;;;;;;5.88;1.20;;;17.20;99.90;;;;;;5058534;28;20491;-52
2023/10/26 05:06:06;;;;;;;6.20;1.33;;;17.10;99.90;;;;;;5054804;28;20036;-51
2023/10/26 05:08:32;;;;;;;3.05;1.10;;;17.10;99.90;;;;;;5063031;28;20040;-53
2023/10/26 05:10:58;;;;;;;3.03;1.25;;;17.10;99.90;;;;;;5063400;28;20492;-52
2023/10/26 05:13:25;;;;;;;6.03;1.60;;;17.10;99.90;;;;;;5066327;28;20146;-53
2023/10/26 05:15:50;;;;;;;3.60;1.40;;;17.10;99.90;;;;;;5073355;28;20045;-51
2023/10/26 05:18:17;;;;;;;4.80;1.25;;;17.00;99.90;;;;;;5075058;28;20052;-54
2023/10/26 05:20:49;;;;;;;3.03;1.20;;;16.90;99.90;;;;;;5075333;28;20063;-53
2023/10/26 05:23:15;;;;;;;6.65;1.35;;;16.90;99.90;;;;;;5075737;28;20029;-51
2023/10/26 05:25:41;;;;;;;7.85;1.40;;;16.90;99.90;;;;;;5075410;28;20032;-52
2023/10/26 05:28:07;;;;;;;2.78;1.33;;;17.00;99.90;;;;;;5075138;28;20463;-59
2023/10/26 05:30:33;;;;;;;6.53;1.70;;;17.00;99.90;;;;;;5074253;28;20424;-56
2023/10/26 05:32:58;;;;;;;5.20;1.67;;;17.00;99.90;;;;;;5066212;28;20089;-54
2023/10/26 05:35:24;;;;;;;5.88;1.77;;;17.10;99.90;;;;;;5063374;28;20099;-53
2023/10/26 05:37:50;;;;;;;2.65;0.98;;;17.10;99.90;;;;;;5064869;28;20051;-54
2023/10/26 05:40:16;;;;;;;1.80;1.05;;;17.10;99.90;;;;;;5064388;28;20061;-55
2023/10/26 05:42:41;;;;;;;5.80;1.40;;;17.10;99.90;;;;;;5066521;28;20036;-54
2023/10/26 05:45:08;;;;;;;6.20;1.60;;;17.20;99.90;;;;;;5074697;28;20468;-57
2023/10/26 05:47:33;;;;;;;17.20;8.32;;;17.20;99.90;;;;;;5074800;28;20028;-56
2023/10/26 05:50:00;;;;;;;6.05;1.60;;;17.40;99.90;;;;;;5074641;28;20051;-55
2023/10/26 05:52:25;;;;;;;6.20;2.85;;;17.30;99.90;;;;;;5074287;28;20021;-56
2023/10/26 05:54:54;;;;;;;7.47;1.63;;;17.30;99.90;;;;;;5072998;28;20039;-54
2023/10/26 05:57:20;;;;;;;3.08;1.27;;;17.30;99.90;;;;;;5073977;28;20024;-56
2023/10/26 05:59:46;;;;;;;5.32;2.95;;;17.20;99.90;;;;;;5074083;28;20058;-53
2023/10/26 06:02:11;;;;;;;2.40;1.10;;;17.20;99.90;;;;;;5073842;28;20024;-52
2023/10/26 06:04:37;;;;;;;5.55;2.00;;;17.20;99.90;;;;;;5074215;28;20024;-54
2023/10/26 06:07:03;;;;;;;4.50;1.50;;;17.10;99.90;;;;;;5073872;28;20024;-57
2023/10/26 06:09:29;;;;;;;7.78;2.47;;;17.10;99.90;;;;;;5073522;28;20127;-55
2023/10/26 06:11:54;;;;;;;3.83;1.58;;;17.10;99.90;;;;;;5073968;28;20021;-55
2023/10/26 06:14:20;;;;;;;6.85;1.63;;;17.10;99.90;;;;;;5072963;28;20036;-54
2023/10/26 06:16:46;;;;;;;7.30;2.15;;;17.20;99.90;;;;;;5073971;28;20085;-55
2023/10/26 06:19:12;;;;;;;4.15;1.48;;;17.30;99.90;;;;;;5073834;28;20392;-57
2023/10/26 06:21:38;;;;;;;6.40;1.85;;;17.30;99.90;;;;;;5072187;28;20025;-56
2023/10/26 06:24:05;;;;;;;6.15;1.67;;;;;;;;;;5066999;28;20153;-53
2023/10/26 06:26:31;;;;;;;6.05;2.20;;;17.30;99.90;;;;;;5078109;28;20051;-53
2023/10/26 06:28:57;;;;;;;3.85;1.60;;;17.40;99.90;;;;;;5062769;28;20488;-56
2023/10/26 06:31:23;;;;;;;6.53;1.70;;;17.60;99.90;;;;;;5064355;28;20181;-55
2023/10/26 06:33:48;;;;;;;5.18;1.90;;;17.70;99.90;;;;;;5056863;28;20029;-55
2023/10/26 06:36:14;;;;;;;4.82;1.60;;;17.70;99.90;;;;;;5061721;28;20030;-55
2023/10/26 07:03:20;;;;;;;10.90;5.23;;;17.60;99.90;;;;;;5138806;22;1339903;-57
2023/10/26 07:05:47;;;;;;;14.15;5.22;;;17.60;99.90;;;;;;5045979;28;20281;-53
2023/10/26 07:08:13;;;;;;;12.38;5.60;;;17.70;99.90;;;;;;5066919;28;20024;-55
2023/10/26 07:10:40;;;;;;;15.90;5.90;;;17.90;99.90;;;;;;5067711;28;20028;-56
2023/10/26 07:13:07;;;;;;;10.48;4.88;;;;;;;;;;5067448;28;20021;-55
2023/10/26 07:15:34;;;;;;;10.68;4.90;;;;;;;;;;5067703;28;20037;-52
2023/10/26 07:18:00;;;;;;;9.45;3.65;;;18.60;99.90;;;;;;5068083;28;20041;-55
2023/10/26 07:20:26;;;;;;;7.47;3.13;;;18.80;99.90;;;;;;5068098;28;20054;-55
2023/10/26 07:22:52;;;;;;;11.27;2.72;;;19.00;99.90;;;;;;5032738;28;20044;-56
2023/10/26 07:25:18;;;;;;;9.00;3.03;;;;;;;;;;5031875;28;21724;-52
2023/10/26 07:27:44;;;;;;;22.08;19.00;;;;;;;;;;5068053;28;20629;-55
2023/10/26 07:30:11;;;;;;;72.88;38.60;;;;;;;;;;5067406;28;20683;-64
2023/10/26 07:32:37;;;;;;;109.75;58.05;;;;;;;;;;5067463;28;20032;-53
2023/10/26 07:35:04;;;;;;;74.80;34.92;;;;;;;;;;5067471;28;20039;-56
2023/10/26 07:37:30;;;;;;;41.20;20.90;;;;;;;;;;5067972;28;20480;-53
2023/10/26 07:39:55;;;;;;;22.85;13.55;;;21.70;99.90;;;;;;5067543;28;20383;-59
2023/10/26 07:42:21;;;;;;;16.30;8.27;;;;;;;;;;5061596;28;20021;-63
2023/10/26 07:44:52;;;;;;;15.85;9.40;;;23.00;99.90;;;;;;5063737;28;20035;-60
2023/10/26 07:47:18;;;;;;;11.43;6.00;;;;;;;;;;5064151;28;20036;-58
2023/10/26 07:49:45;;;;;;;10.90;5.97;;;;;;;;;;5062165;28;20024;-56
2023/10/26 07:52:11;;;;;;;7.47;3.20;;;26.70;99.90;;;;;;5053760;28;20032;-55
2023/10/26 07:54:36;;;;;;;6.15;2.88;;;25.70;99.90;;;;;;5001264;28;20124;-55
2023/10/26 07:57:02;;;;;;;7.32;2.30;;;25.70;99.10;;;;;;5053141;28;20025;-57
2023/10/26 07:59:30;;;;;;;5.00;2.10;;;25.00;99.10;;;;;;5001747;28;20159;-59
2023/10/26 08:01:55;;;;;;;3.40;3.10;;;24.90;98.60;;;;;;5053708;28;20056;-55
2023/10/26 08:04:21;;;;;;;4.97;2.15;;;25.30;98.40;;;;;;5050484;28;20476;-55
2023/10/26 08:06:47;;;;;;;4.03;1.60;;;;;;;;;;5051112;28;20036;-59
2023/10/26 08:09:13;;;;;;;5.63;2.33;;;;;;;;;;5053867;28;20392;-57
2023/10/26 08:11:39;;;;;;;3.85;1.75;;;;;;;;;;5053519;28;20112;-55
2023/10/26 08:14:05;;;;;;;6.47;2.20;;;24.00;99.90;;;;;;5053338;28;20080;-60
2023/10/26 08:16:31;;;;;;;3.00;1.60;;;23.90;97.90;;;;;;5053228;28;20504;-56
2023/10/26 08:18:56;;;;;;;5.57;2.50;;;24.20;97.80;;;;;;5053844;28;20040;-56
2023/10/26 08:21:22;;;;;;;3.08;1.85;;;23.90;98.20;;;;;;5053737;28;20029;-54
2023/10/26 08:23:49;;;;;;;6.65;3.05;;;24.20;98.10;;;;;;5053642;28;20025;-57
2023/10/26 08:26:15;;;;;;;9.85;3.83;;;23.80;98.00;;;;;;5053710;28;20036;-57
2023/10/26 08:28:40;;;;;;;10.23;5.40;;;24.20;98.10;;;;;;5017785;28;20041;-57
2023/10/26 08:31:06;;;;;;;3.90;2.20;;;;;;;;;;5053123;28;20390;-59
2023/10/26 08:33:35;;;;;;;2.75;1.85;;;25.60;96.00;;;;;;5052808;28;20056;-57
2023/10/26 08:36:03;;;;;;;4.50;1.65;;;25.40;96.50;;;;;;5051736;28;20029;-57
2023/10/26 08:38:29;;;;;;;5.63;2.60;;;24.40;96.60;;;;;;5053111;28;20033;-56
2023/10/26 08:40:55;;;;;;;4.10;2.03;;;24.60;97.20;;;;;;5052646;28;20506;-58
2023/10/26 08:43:22;;;;;;;5.65;2.28;;;24.90;97.30;;;;;;5050109;28;20025;-56
2023/10/26 08:45:49;;;;;;;5.97;2.20;;;25.10;96.80;;;;;;5052935;28;20060;-55
2023/10/26 08:48:16;;;;;;;6.35;1.85;;;25.50;96.80;;;;;;5052520;28;20452;-56
2023/10/26 08:50:42;;;;;;;7.40;2.10;;;25.70;99.00;;;;;;5033935;28;20110;-59
2023/10/26 08:53:09;;;;;;;3.05;1.50;;;25.20;96.40;;;;;;5052825;28;20052;-60
2023/10/26 08:55:40;;;;;;;4.43;1.98;;;24.50;96.50;;;;;;5017867;28;20045;-59
2023/10/26 08:58:06;;;;;;;5.75;1.85;;;24.40;99.90;;;;;;5053073;28;20036;-57
2023/10/26 09:00:33;;;;;;;5.95;2.38;;;24.30;99.90;;;;;;5033572;28;20029;-59
2023/10/26 09:02:59;;;;;;;5.78;2.40;;;24.00;99.90;;;;;;5032117;28;20140;-56
2023/10/26 09:05:24;;;;;;;6.88;2.53;;;24.30;99.90;;;;;;5052131;28;20103;-56
2023/10/26 09:07:53;;;;;;;5.20;2.28;;;24.20;99.90;;;;;;5053067;28;20040;-56
2023/10/26 09:10:32;;;;;;;8.85;3.65;;;24.80;99.90;;;;;;5052971;28;20368;-59
2023/10/26 09:13:00;;;;;;;4.07;1.63;;;24.10;99.90;;;;;;5053094;28;20435;-58
2023/10/26 09:15:26;;;;;;;3.13;1.45;;;24.10;99.90;;;;;;5052976;28;20094;-54
2023/10/26 09:17:57;;;;;;;5.70;2.50;;;24.10;99.90;;;;;;5052395;28;20025;-62
2023/10/26 09:20:24;;;;;;;7.40;2.42;;;24.00;99.90;;;;;;5048539;28;20032;-59
2023/10/26 09:22:50;;;;;;;4.90;2.10;;;23.90;99.90;;;;;;5050583;28;20055;-63
2023/10/26 09:25:20;;;;;;;4.68;1.80;;;23.70;99.90;;;;;;5050710;28;20043;-54
2023/10/26 09:27:47;;;;;;;4.25;2.50;;;23.20;99.40;;;;;;5029340;28;20124;-55
2023/10/26 09:30:25;;;;;;;5.57;2.20;;;22.70;99.90;;;;;;5048993;28;20146;-57
2023/10/26 09:32:51;;;;;;;3.70;1.30;;;22.60;99.90;;;;;;4999838;28;20036;-57
2023/10/26 09:35:27;;;;;;;3.38;1.40;;;22.70;99.90;;;;;;5051184;28;20057;-55
2023/10/26 09:37:53;;;;;;;8.20;2.00;;;22.80;99.90;;;;;;5051760;28;20036;-59
2023/10/26 09:40:22;;;;;;;3.00;1.25;;;22.90;99.90;;;;;;5051992;28;20557;-56
2023/10/26 09:42:51;;;;;;;7.93;1.92;;;22.50;99.90;;;;;;5052431;28;20029;-58
2023/10/26 09:45:18;;;;;;;7.95;3.70;;;22.70;99.90;;;;;;5051420;28;20388;-57
2023/10/26 09:47:45;;;;;;;10.27;5.07;;;23.10;99.90;;;;;;5052206;28;20025;-58
2023/10/26 09:50:11;;;;;;;13.82;7.10;;;23.10;99.90;;;;;;5031610;28;20144;-57
2023/10/26 09:52:39;;;;;;;9.35;3.63;;;23.10;99.90;;;;;;5051551;28;20480;-58
2023/10/26 09:55:08;;;;;;;6.57;4.10;;;22.80;99.90;;;;;;5051614;28;20051;-57
2023/10/26 09:57:38;;;;;;;7.03;2.70;;;22.60;99.90;;;;;;5000207;28;20040;-61
2023/10/26 10:00:13;;;;;;;8.25;3.55;;;22.60;99.90;;;;;;5051918;28;20388;-60
2023/10/26 10:02:39;;;;;;;8.95;4.00;;;22.80;99.90;;;;;;5052054;28;20084;-59
2023/10/26 10:05:05;;;;;;;8.07;3.50;;;22.80;99.90;;;;;;5051790;28;20596;-57
2023/10/26 10:07:42;;;;;;;7.40;3.90;;;22.70;99.90;;;;;;5000213;28;20373;-61
2023/10/26 10:10:10;;;;;;;7.00;3.70;;;22.70;99.90;;;;;;5051912;28;20029;-62
2023/10/26 10:12:38;;;;;;;10.30;5.50;;;22.90;99.90;;;;;;5000253;28;20115;-59
2023/10/26 10:15:09;;;;;;;10.88;5.53;;;23.00;99.90;;;;;;5051737;28;20032;-60
2023/10/26 10:17:44;;;;;;;9.32;5.40;;;22.90;99.90;;;;;;5051807;28;20031;-60
2023/10/26 10:20:17;;;;;;;10.82;4.93;;;22.90;99.90;;;;;;5033085;28;20040;-60
2023/10/26 10:22:46;;;;;;;6.82;3.92;;;22.90;99.90;;;;;;5051903;28;20028;-59
2023/10/26 10:25:13;;;;;;;4.60;2.47;;;23.00;99.90;;;;;;5028987;28;20037;-57
2023/10/26 10:27:41;;;;;;;6.22;2.55;;;23.70;99.90;;;;;;4972281;28;20197;-60
2023/10/26 10:30:11;;;;;;;4.95;2.80;;;22.80;99.90;;;;;;4986759;28;20053;-68
2023/10/26 10:32:53;;;;;;;7.22;3.00;;;22.90;99.90;;;;;;4989765;28;20125;-57
2023/10/26 10:35:46;;;;;;;5.53;2.22;;;23.20;99.90;;;;;;4990100;28;20502;-58
2023/10/26 10:38:15;;;;;;;6.57;2.83;;;23.10;99.90;;;;;;4989902;28;20033;-66
2023/10/26 10:41:02;;;;;;;5.13;2.95;;;23.60;99.90;;;;;;4989953;28;20512;-56
2023/10/26 10:43:36;;;;;;;10.48;3.13;;;24.60;99.90;;;;;;4976668;28;20138;-55
2023/10/26 10:46:16;;;;;;;8.25;2.83;;;24.70;99.10;;;;;;4989623;28;20042;-62
2023/10/26 10:49:07;;;;;;;7.43;3.17;;;24.30;99.50;;;;;;4989519;28;20528;-62
2023/10/26 10:51:38;;;;;;;7.13;2.70;;;24.30;99.40;;;;;;4935004;28;20039;-57
2023/10/26 10:54:13;;;;;;;5.13;2.53;;;24.10;98.60;;;;;;4970564;28;20069;-59
2023/10/26 10:56:49;;;;;;;8.57;2.70;;;23.90;98.60;;;;;;4940416;28;20126;-60
2023/10/26 10:59:25;;;;;;;5.05;2.50;;;23.60;99.90;;;;;;4970452;28;20075;-61
2023/10/26 11:02:10;;;;;;;4.13;2.30;;;23.50;98.60;;;;;;4971490;28;20054;-57
2023/10/26 11:04:50;;;;;;;5.20;3.38;;;23.60;98.50;;;;;;4970225;28;20033;-55
2023/10/26 11:07:17;;;;;;;5.05;1.95;;;;;;;;;;5031515;28;20358;-58
2023/10/26 11:12:50;;;;;;;6.63;2.95;;;;;;;;;;5032244;28;20087;-57
2023/10/26 11:15:16;;;;;;;4.82;2.90;;;26.30;99.90;;;;;;5031467;28;20026;-56
2023/10/26 11:17:42;;;;;;;2.92;2.10;;;25.80;96.50;;;;;;5031205;28;20025;-61
2023/10/26 11:20:29;;;;;;;6.30;2.95;;;;;;;;;;5031442;28;20025;-57
2023/10/26 11:22:57;;;;;;;6.85;3.20;;;24.90;99.90;;;;;;5031396;28;20017;-59
2023/10/26 11:25:26;;;;;;;5.75;4.85;;;25.60;96.80;;;;;;5033085;28;20036;-58
2023/10/26 11:27:52;;;;;;;5.57;3.22;;;;;;;;;;5035489;28;20060;-55
2023/10/26 11:30:18;;;;;;;6.25;2.90;;;26.70;95.10;;;;;;5034932;28;20061;-59
2023/10/26 11:32:44;;;;;;;4.55;2.50;;;;;;;;;;5035366;28;20068;-60
2023/10/26 11:35:13;;;;;;;6.30;3.47;;;26.30;99.90;;;;;;5034927;28;20108;-66
2023/10/26 11:37:47;;;;;;;4.22;2.45;;;25.90;94.90;;;;;;5034858;28;20116;-59
2023/10/26 11:40:15;;;;;;;3.30;2.20;;;26.10;94.80;;;;;;5016136;28;20516;-61
2023/10/26 11:42:56;;;;;;;7.47;2.38;;;26.00;94.70;;;;;;5034821;28;20025;-56
2023/10/26 11:45:25;;;;;;;5.38;2.72;;;26.10;95.00;;;;;;5034913;28;20121;-62
2023/10/26 11:47:58;;;;;;;7.15;3.10;;;;;;;;;;5034729;28;20480;-60
2023/10/26 11:50:32;;;;;;;4.63;2.70;;;26.40;95.50;;;;;;5034665;28;20025;-61
2023/10/26 11:53:03;;;;;;;5.40;3.03;;;;;;;;;;5034830;28;20029;-59
2023/10/26 11:55:31;;;;;;;6.75;3.20;;;;;;;;;;5034420;28;20472;-60
2023/10/26 11:57:58;;;;;;;8.90;2.75;;;;;;;;;;5051941;28;20048;-62
2023/10/26 12:00:25;;;;;;;4.55;2.75;;;;;;;;;;5054367;28;20017;-64
2023/10/26 12:02:51;;;;;;;3.63;2.28;;;;;;;;;;5054064;28;20059;-58
2023/10/26 12:05:18;;;;;;;5.18;2.28;;;;;;;;;;5003160;28;20120;-59
2023/10/26 12:07:45;;;;;;;3.20;2.20;;;24.80;99.90;;;;;;5035384;28;20033;-56
2023/10/26 12:10:11;;;;;;;5.35;2.30;;;;;;;;;;5054169;28;20063;-54
2023/10/26 12:12:37;;;;;;;6.35;2.35;;;;;;;;;;5054358;28;20056;-58
2023/10/26 12:15:23;;;;;;;5.30;2.33;;;25.00;99.90;;;;;;5011839;28;20033;-55
2023/10/26 12:17:49;;;;;;;4.53;2.15;;;24.80;99.90;;;;;;5011937;28;20038;-59
2023/10/26 12:20:15;;;;;;;8.10;2.80;;;;;;;;;;5011854;28;20064;-60
2023/10/26 12:22:42;;;;;;;7.10;2.55;;;;;;;;;;5012054;28;20060;-55
2023/10/26 12:25:10;;;;;;;5.22;2.78;;;;;;;;;;5009466;28;20050;-64
2023/10/26 12:27:37;;;;;;;5.60;2.58;;;24.20;99.90;;;;;;5011251;28;20033;-59
2023/10/26 12:30:03;;;;;;;4.20;2.58;;;24.20;99.90;;;;;;5011125;28;20030;-61
2023/10/26 12:32:30;;;;;;;16.13;10.13;;;24.20;99.90;;;;;;5011193;28;20030;-58
2023/10/26 12:34:56;;;;;;;5.55;3.33;;;24.30;99.90;;;;;;5008722;28;20065;-65
2023/10/26 12:37:21;;;;;;;5.75;3.20;;;24.30;99.90;;;;;;4991756;28;20489;-59
2023/10/26 12:39:47;;;;;;;6.55;4.78;;;24.30;99.90;;;;;;4991858;28;20050;-64
2023/10/26 12:42:13;;;;;;;7.47;4.55;;;24.50;99.90;;;;;;4959457;28;20046;-57
2023/10/26 12:44:39;;;;;;;5.70;3.65;;;24.60;99.90;;;;;;4991915;28;20038;-61
2023/10/26 12:47:05;;;;;;;6.25;3.08;;;24.50;99.90;;;;;;5007359;28;20026;-62
2023/10/26 12:49:31;;;;;;;8.15;4.95;;;24.50;99.90;;;;;;5011451;28;20045;-55
2023/10/26 12:51:57;;;;;;;6.05;3.20;;;24.40;99.90;;;;;;5009307;28;20509;-61
2023/10/26 12:54:23;;;;;;;5.90;3.67;;;24.40;99.90;;;;;;4991548;28;20604;-58
2023/10/26 12:56:49;;;;;;;8.85;3.47;;;24.50;99.90;;;;;;4986992;28;20130;-58
2023/10/26 12:59:15;;;;;;;8.38;3.85;;;24.50;99.90;;;;;;4987891;28;20207;-53
2023/10/26 13:01:40;;;;;;;8.07;3.60;;;24.40;99.90;;;;;;4935102;29;20106;-53
2023/10/26 13:04:06;;;;;;;6.82;3.25;;;24.40;99.90;;;;;;4952191;29;20044;-55
2023/10/26 13:06:36;;;;;;;8.25;3.70;;;24.50;99.90;;;;;;4952211;29;20035;-54
2023/10/26 13:09:03;;;;;;;7.53;3.63;;;24.60;99.90;;;;;;4966935;28;20043;-56
2023/10/26 13:11:28;;;;;;;6.43;3.58;;;24.50;99.90;;;;;;4971529;28;20043;-56
2023/10/26 13:13:54;;;;;;;9.13;3.50;;;24.50;99.90;;;;;;4971219;28;20022;-54
2023/10/26 13:16:20;;;;;;;5.07;3.00;;;24.50;99.90;;;;;;4971256;28;20139;-54
2023/10/26 13:18:46;;;;;;;5.63;3.38;;;24.50;99.90;;;;;;4971706;28;20047;-56
2023/10/26 13:21:12;;;;;;;19.27;8.30;;;24.50;99.90;;;;;;4971566;28;20167;-55
2023/10/26 13:23:37;;;;;;;9.38;4.47;;;24.50;99.90;;;;;;4971910;28;20034;-56
2023/10/26 13:26:03;;;;;;;7.07;3.22;;;24.40;99.90;;;;;;4971693;28;20136;-55